createdAt,value
2023-05-11T00:01:37.135Z,11.07
2023-05-11T00:04:13.488Z,14.65
2023-05-11T00:06:58.743Z,13.50
2023-05-11T00:09:35.722Z,11.93
2023-05-11T00:22:07.649Z,14.70
2023-05-11T00:24:42.982Z,11.38
2023-05-11T00:27:16.745Z,11.13
2023-05-11T00:29:50.378Z,9.55
2023-05-11T00:32:26.909Z,12.65
2023-05-11T00:35:04.236Z,13.05
2023-05-11T00:38:14.848Z,13.50
2023-05-11T00:46:09.135Z,8.75
2023-05-11T00:48:53.184Z,12.73
2023-05-11T00:51:27.965Z,9.05
2023-05-11T00:54:02.816Z,13.80
2023-05-11T00:56:36.563Z,13.90
2023-05-11T00:59:10.846Z,12.27
2023-05-11T01:01:46.577Z,8.40
2023-05-11T01:04:20.841Z,10.25
2023-05-11T01:07:02.381Z,10.40
2023-05-11T01:09:47.963Z,11.07
2023-05-11T01:12:30.031Z,10.23
2023-05-11T01:15:10.987Z,11.00
2023-05-11T01:34:50.138Z,10.80
2023-05-11T01:37:29.176Z,10.88
2023-05-11T01:40:11.988Z,9.60
2023-05-11T01:42:52.794Z,9.07
2023-05-11T01:45:29.216Z,8.27
2023-05-11T01:48:07.017Z,9.95
2023-05-11T01:50:46.713Z,8.55
2023-05-11T01:53:21.761Z,9.85
2023-05-11T01:55:59.223Z,10.40
2023-05-11T01:58:34.572Z,9.25
2023-05-11T02:01:11.281Z,12.40
2023-05-11T02:03:48.477Z,12.63
2023-05-11T02:06:26.769Z,8.90
2023-05-11T02:09:01.909Z,10.73
2023-05-11T02:26:00.285Z,20.85
2023-05-11T02:28:35.517Z,8.20
2023-05-11T03:11:36.264Z,13.88
2023-05-11T03:14:10.597Z,15.25
2023-05-11T03:21:53.934Z,15.43
2023-05-11T03:24:35.182Z,14.43
2023-05-11T03:28:00.898Z,24.90
2023-05-11T04:01:19.300Z,14.85
2023-05-11T04:04:13.510Z,11.40
2023-05-11T04:22:26.303Z,11.45
2023-05-11T04:26:14.042Z,9.00
2023-05-11T05:13:51.274Z,22.90
2023-05-11T05:19:38.339Z,17.20
2023-05-11T05:22:13.519Z,17.05
2023-05-11T05:24:48.391Z,14.85
2023-05-11T05:27:22.102Z,13.30
2023-05-11T05:29:59.276Z,18.80
2023-05-11T05:32:33.386Z,14.35
2023-05-11T05:35:07.781Z,22.85
2023-05-11T05:37:41.676Z,25.40
2023-05-11T05:40:15.665Z,24.48
2023-05-11T05:42:55.884Z,27.30
2023-05-11T05:45:32.499Z,21.13
2023-05-11T05:48:09.778Z,13.38
2023-05-11T05:50:43.666Z,10.98
2023-05-11T05:53:18.483Z,10.15
2023-05-11T05:55:56.509Z,8.23
2023-05-11T05:58:57.003Z,12.48
2023-05-11T06:01:32.736Z,7.85
2023-05-11T06:04:07.412Z,8.35
2023-05-11T06:06:41.923Z,6.63
2023-05-11T06:09:17.447Z,9.25
2023-05-11T06:11:54.202Z,7.10
2023-05-11T06:14:30.346Z,9.18
2023-05-11T06:17:06.377Z,10.65
2023-05-11T06:19:40.756Z,5.95
2023-05-11T06:22:15.584Z,6.95
2023-05-11T06:24:50.068Z,4.05
2023-05-11T06:27:26.220Z,4.40
2023-05-11T06:30:03.180Z,4.65
2023-05-11T06:32:42.330Z,3.25
2023-05-11T06:35:16.728Z,3.53
2023-05-11T06:37:51.895Z,5.70
2023-05-11T06:40:26.533Z,3.92
2023-05-11T06:43:00.285Z,5.68
2023-05-11T06:45:48.410Z,5.53
2023-05-11T06:48:26.026Z,6.18
2023-05-11T06:50:59.926Z,3.45
2023-05-11T06:53:34.162Z,2.92
2023-05-11T06:56:08.460Z,5.10
2023-05-11T06:58:43.776Z,3.50
2023-05-11T07:01:17.594Z,3.45
2023-05-11T07:03:55.962Z,3.25
2023-05-11T07:06:29.956Z,2.53
2023-05-11T07:09:03.936Z,7.20
2023-05-11T07:11:37.972Z,5.05
2023-05-11T07:14:12.400Z,2.38
2023-05-11T07:16:46.948Z,2.28
2023-05-11T07:19:22.377Z,1.55
2023-05-11T07:21:56.256Z,5.03
2023-05-11T07:24:30.171Z,3.97
2023-05-11T07:27:04.240Z,2.40
2023-05-11T07:29:38.348Z,3.50
2023-05-11T07:32:14.488Z,2.97
2023-05-11T07:34:50.247Z,2.03
2023-05-11T07:37:24.125Z,3.88
2023-05-11T07:39:58.021Z,2.15
2023-05-11T07:42:31.836Z,1.95
2023-05-11T07:45:06.070Z,2.30
2023-05-11T07:50:57.074Z,3.28
2023-05-11T07:53:33.206Z,3.95
2023-05-11T07:56:07.532Z,3.08
2023-05-11T07:58:41.220Z,1.85
2023-05-11T08:01:14.936Z,3.28
2023-05-11T08:03:48.598Z,13.27
2023-05-11T08:06:23.725Z,4.07
2023-05-11T08:08:57.415Z,2.28
2023-05-11T08:11:31.039Z,3.05
2023-05-11T08:14:05.218Z,6.45
2023-05-11T08:16:39.133Z,3.80
2023-05-11T08:19:13.142Z,2.78
2023-05-11T08:21:48.064Z,1.63
2023-05-11T08:24:21.608Z,2.30
2023-05-11T08:26:55.223Z,1.88
2023-05-11T08:29:28.873Z,5.05
2023-05-11T08:32:02.472Z,6.13
2023-05-11T08:34:36.373Z,5.50
2023-05-11T08:37:11.509Z,4.00
2023-05-11T08:39:47.417Z,3.63
2023-05-11T08:42:25.068Z,2.35
2023-05-11T08:44:59.404Z,1.90
2023-05-11T08:47:33.591Z,2.50
2023-05-11T08:50:16.346Z,3.00
2023-05-11T08:52:51.490Z,2.30
2023-05-11T08:55:28.801Z,2.08
2023-05-11T08:58:04.247Z,2.33
2023-05-11T09:00:39.463Z,5.18
2023-05-11T09:03:13.770Z,1.98
2023-05-11T09:05:48.671Z,5.40
2023-05-11T09:08:25.745Z,2.78
2023-05-11T09:11:01.035Z,2.55
2023-05-11T09:13:35.099Z,10.98
2023-05-11T09:16:16.890Z,2.90
2023-05-11T09:19:02.002Z,3.30
2023-05-11T09:21:35.910Z,2.25
2023-05-11T09:24:13.158Z,1.95
2023-05-11T09:26:46.809Z,3.10
2023-05-11T09:29:21.480Z,5.05
2023-05-11T09:31:55.802Z,2.13
2023-05-11T09:34:29.800Z,4.93
2023-05-11T09:45:43.226Z,4.55
2023-05-11T09:55:34.184Z,3.88
2023-05-11T09:58:10.903Z,3.28
2023-05-11T10:00:52.407Z,2.63
2023-05-11T10:07:09.138Z,3.17
2023-05-11T10:09:43.075Z,2.13
2023-05-11T10:12:21.249Z,4.47
2023-05-11T10:15:14.356Z,2.38
2023-05-11T10:17:54.925Z,1.95
2023-05-11T10:20:28.897Z,2.50
2023-05-11T10:23:03.221Z,4.25
2023-05-11T10:25:37.526Z,2.22
2023-05-11T10:28:12.622Z,1.50
2023-05-11T10:30:47.238Z,1.20
2023-05-11T10:33:22.377Z,3.33
2023-05-11T10:35:56.665Z,1.95
2023-05-11T10:38:30.332Z,1.85
2023-05-11T10:41:13.885Z,2.03
2023-05-11T10:44:12.461Z,2.85
2023-05-11T10:47:03.960Z,1.02
2023-05-11T10:50:16.259Z,3.70
2023-05-11T10:53:05.551Z,4.93
2023-05-11T10:55:57.763Z,4.03
2023-05-11T10:58:45.911Z,2.43
2023-05-11T11:01:47.752Z,3.17
2023-05-11T11:04:21.646Z,5.93
2023-05-11T11:07:07.884Z,4.43
2023-05-11T11:09:52.705Z,6.05
2023-05-11T11:12:27.571Z,1.60
2023-05-11T11:15:03.134Z,1.48
2023-05-11T11:17:38.283Z,4.63
2023-05-11T11:20:47.147Z,1.63
2023-05-11T11:23:44.897Z,7.57
2023-05-11T11:26:41.012Z,1.30
2023-05-11T11:29:16.172Z,2.30
2023-05-11T11:31:49.862Z,2.22
2023-05-11T11:34:39.869Z,4.82
2023-05-11T11:37:15.077Z,1.35
2023-05-11T11:40:13.088Z,1.55
2023-05-11T11:42:49.102Z,2.17
2023-05-11T11:45:35.058Z,1.70
2023-05-11T11:48:13.677Z,1.90
2023-05-11T11:50:49.061Z,1.65
2023-05-11T11:54:11.962Z,1.90
2023-05-11T11:56:47.581Z,1.10
2023-05-11T11:59:21.649Z,1.38
2023-05-11T12:01:56.675Z,1.30
2023-05-11T12:04:44.936Z,1.77
2023-05-11T12:08:36.895Z,1.52
2023-05-11T12:11:10.791Z,4.40
2023-05-11T12:13:46.242Z,1.50
2023-05-11T12:16:20.182Z,1.38
2023-05-11T12:18:57.221Z,2.00
2023-05-11T12:21:33.309Z,0.82
2023-05-11T12:24:07.717Z,3.08
2023-05-11T12:26:41.629Z,1.27
2023-05-11T12:29:18.682Z,3.70
2023-05-11T12:31:52.398Z,1.40
2023-05-11T12:34:26.213Z,1.08
2023-05-11T12:37:01.623Z,1.98
2023-05-11T12:39:37.033Z,1.02
2023-05-11T12:42:10.732Z,0.88
2023-05-11T12:44:46.027Z,3.00
2023-05-11T12:47:20.131Z,1.25
2023-05-11T12:49:53.891Z,1.25
2023-05-11T12:52:27.659Z,1.10
2023-05-11T12:55:01.267Z,0.98
2023-05-11T12:57:35.034Z,1.92
2023-05-11T13:00:13.039Z,1.05
2023-05-11T13:02:52.123Z,1.63
2023-05-11T13:05:27.164Z,1.20
2023-05-11T13:08:01.834Z,1.10
2023-05-11T13:10:35.440Z,2.47
2023-05-11T13:13:09.671Z,0.80
2023-05-11T13:15:53.495Z,3.78
2023-05-11T13:18:27.514Z,1.52
2023-05-11T13:21:09.663Z,1.88
2023-05-11T13:23:43.335Z,1.95
2023-05-11T13:26:24.161Z,2.15
2023-05-11T13:29:09.422Z,1.75
2023-05-11T13:31:48.538Z,0.75
2023-05-11T13:34:22.538Z,2.97
2023-05-11T13:36:56.233Z,2.05
2023-05-11T13:39:29.869Z,1.48
2023-05-11T13:42:03.624Z,1.55
2023-05-11T13:44:37.211Z,1.05
2023-05-11T13:47:12.446Z,1.33
2023-05-11T13:49:46.165Z,1.75
2023-05-11T13:52:19.955Z,2.00
2023-05-11T13:54:53.699Z,1.10
2023-05-11T13:57:27.473Z,1.73
2023-05-11T14:00:01.135Z,4.05
2023-05-11T14:02:48.307Z,3.85
2023-05-11T14:05:22.316Z,1.17
2023-05-11T14:07:56.150Z,1.70
2023-05-11T14:10:29.750Z,2.45
2023-05-11T14:13:03.356Z,5.63
2023-05-11T14:15:38.491Z,3.65
2023-05-11T14:18:14.039Z,3.28
2023-05-11T14:20:51.807Z,0.95
2023-05-11T14:23:26.007Z,3.10
2023-05-11T14:26:02.749Z,2.22
2023-05-11T14:28:36.884Z,0.80
2023-05-11T14:31:10.748Z,0.98
2023-05-11T14:33:46.041Z,1.10
2023-05-11T14:36:19.595Z,2.90
2023-05-11T14:38:53.138Z,1.92
2023-05-11T14:41:26.754Z,2.83
2023-05-11T14:44:00.419Z,6.93
2023-05-11T14:46:34.113Z,2.40
2023-05-11T14:49:09.135Z,2.40
2023-05-11T14:51:42.730Z,2.50
2023-05-11T14:54:16.216Z,1.90
2023-05-11T14:56:54.039Z,2.83
2023-05-11T14:59:28.131Z,2.75
2023-05-11T15:02:01.824Z,3.00
2023-05-11T15:04:36.823Z,1.70
2023-05-11T15:07:10.393Z,1.27
2023-05-11T15:09:43.881Z,3.03
2023-05-11T15:12:17.449Z,1.75
2023-05-11T15:14:51.159Z,6.75
2023-05-11T15:17:24.788Z,1.35
2023-05-11T15:19:59.797Z,2.03
2023-05-11T15:22:33.812Z,11.13
2023-05-11T15:25:08.286Z,2.42
2023-05-11T15:27:41.897Z,2.65
2023-05-11T15:30:16.165Z,2.63
2023-05-11T15:32:50.236Z,0.98
2023-05-11T15:35:28.664Z,2.22
2023-05-11T15:38:02.288Z,2.35
2023-05-11T15:40:36.182Z,3.30
2023-05-11T15:43:10.029Z,0.82
2023-05-11T15:45:43.878Z,90.78
2023-05-11T15:48:17.679Z,14.85
2023-05-11T15:50:55.834Z,6.22
2023-05-11T15:53:29.906Z,4.00
2023-05-11T15:56:03.692Z,5.15
2023-05-11T15:58:37.294Z,3.35
2023-05-11T16:01:10.837Z,11.68
2023-05-11T16:03:44.678Z,2.50
2023-05-11T16:06:19.790Z,3.33
2023-05-11T16:08:53.642Z,2.45
2023-05-11T16:11:27.420Z,4.70
2023-05-11T16:14:01.316Z,1.58
2023-05-11T16:16:35.157Z,4.63
2023-05-11T16:19:08.993Z,2.92
2023-05-11T16:21:44.299Z,7.22
2023-05-11T16:24:21.182Z,3.28
2023-05-11T16:26:54.709Z,12.75
2023-05-11T16:29:28.287Z,6.78
2023-05-11T16:32:02.030Z,12.55
2023-05-11T16:34:36.374Z,20.90
2023-05-11T16:37:11.346Z,4.50
2023-05-11T16:39:47.043Z,4.70
2023-05-11T16:42:21.043Z,3.45
2023-05-11T16:44:55.107Z,3.08
2023-05-11T16:47:28.674Z,3.95
2023-05-11T16:50:02.198Z,6.30
2023-05-11T16:52:37.378Z,3.00
2023-05-11T16:55:11.801Z,5.20
2023-05-11T16:57:45.653Z,3.95
2023-05-11T17:00:20.140Z,9.23
2023-05-11T17:02:54.171Z,3.95
2023-05-11T17:05:28.530Z,9.98
2023-05-11T17:08:03.694Z,3.28
2023-05-11T17:10:37.241Z,3.72
2023-05-11T17:13:10.863Z,1.90
2023-05-11T17:15:44.480Z,2.72
2023-05-11T17:18:18.365Z,9.27
2023-05-11T17:20:56.095Z,2.03
2023-05-11T17:23:31.533Z,1.17
2023-05-11T17:26:10.167Z,2.95
2023-05-11T17:28:43.837Z,1.27
2023-05-11T17:31:17.700Z,3.78
2023-05-11T17:33:51.648Z,3.38
2023-05-11T17:36:25.302Z,4.75
2023-05-11T17:39:01.360Z,4.50
2023-05-11T17:41:35.610Z,8.18
2023-05-11T17:44:09.435Z,11.88
2023-05-11T17:46:43.182Z,14.05
2023-05-11T17:49:16.811Z,9.90
2023-05-11T17:51:50.458Z,9.82
2023-05-11T17:54:25.481Z,12.52
2023-05-11T17:56:59.028Z,11.25
2023-05-11T17:59:32.729Z,8.93
2023-05-11T18:02:07.548Z,12.02
2023-05-11T18:04:42.130Z,10.82
2023-05-11T18:07:15.764Z,6.53
2023-05-11T18:09:50.831Z,12.88
2023-05-11T18:12:24.392Z,13.32
2023-05-11T18:14:57.980Z,15.20
2023-05-11T18:17:32.836Z,15.60
2023-05-11T18:20:08.552Z,11.85
2023-05-11T18:22:42.411Z,14.63
2023-05-11T18:25:17.636Z,13.90
2023-05-11T18:27:51.649Z,14.32
2023-05-11T18:30:26.005Z,15.02
2023-05-11T18:33:00.018Z,24.73
2023-05-11T18:35:34.297Z,12.85
2023-05-11T18:38:08.436Z,16.27
2023-05-11T18:40:46.358Z,9.57
2023-05-11T18:43:20.148Z,10.40
2023-05-11T18:45:53.924Z,10.88
2023-05-11T18:48:28.843Z,11.93
2023-05-11T18:51:02.859Z,10.35
2023-05-11T18:53:36.816Z,6.90
2023-05-11T18:56:12.258Z,11.48
2023-05-11T18:58:46.616Z,13.35
2023-05-11T19:01:24.126Z,10.93
2023-05-11T19:04:00.550Z,13.40
2023-05-11T19:06:35.330Z,14.52
2023-05-11T19:09:09.471Z,16.50
2023-05-11T19:11:46.589Z,12.75
2023-05-11T19:14:22.792Z,15.43
2023-05-11T19:16:57.928Z,16.83
2023-05-11T19:19:31.964Z,19.48
2023-05-11T19:22:09.054Z,14.43
2023-05-11T19:24:43.205Z,20.95
2023-05-11T19:27:20.024Z,14.55
2023-05-11T19:29:53.902Z,14.55
2023-05-11T19:32:27.974Z,18.67
2023-05-11T19:35:01.955Z,19.23
2023-05-11T19:37:36.150Z,19.98
2023-05-11T19:40:26.642Z,24.92
2023-05-11T19:43:05.838Z,18.65
2023-05-11T19:45:42.355Z,16.98
2023-05-11T19:48:16.114Z,22.85
2023-05-11T19:50:52.227Z,15.23
2023-05-11T19:53:26.921Z,17.38
2023-05-11T19:56:00.872Z,18.27
2023-05-11T19:58:36.459Z,17.05
2023-05-11T20:01:11.553Z,12.82
2023-05-11T20:03:45.474Z,16.27
2023-05-11T20:06:19.406Z,16.23
2023-05-11T20:08:54.238Z,15.35
2023-05-11T20:11:28.598Z,13.27
2023-05-11T20:14:04.774Z,15.82
2023-05-11T20:16:38.790Z,15.82
2023-05-11T20:19:12.978Z,17.75
2023-05-11T20:21:48.261Z,18.67
2023-05-11T20:24:22.023Z,24.33
2023-05-11T20:26:56.820Z,18.92
2023-05-11T20:29:32.099Z,20.63
2023-05-11T20:32:06.534Z,16.92
2023-05-11T20:34:40.475Z,17.40
2023-05-11T20:37:14.310Z,17.85
2023-05-11T20:39:48.753Z,15.20
2023-05-11T20:42:22.503Z,19.27
2023-05-11T20:44:59.641Z,14.38
2023-05-11T20:47:33.414Z,13.68
2023-05-11T20:50:10.206Z,20.85
2023-05-11T20:52:44.536Z,27.60
2023-05-11T20:55:18.628Z,21.75
2023-05-11T20:57:52.629Z,16.52
2023-05-11T21:00:27.716Z,14.20
2023-05-11T21:03:01.490Z,19.50
2023-05-11T21:05:35.363Z,16.10
2023-05-11T21:08:08.969Z,19.60
2023-05-11T21:10:43.223Z,22.70
2023-05-11T21:13:17.644Z,20.60
2023-05-11T21:15:52.770Z,21.10
2023-05-11T21:18:32.105Z,21.27
2023-05-11T21:21:06.404Z,19.42
2023-05-11T21:23:40.152Z,21.83
2023-05-11T21:26:13.804Z,19.60
2023-05-11T21:28:47.432Z,22.15
2023-05-11T21:31:22.418Z,17.95
2023-05-11T21:33:56.164Z,18.73
2023-05-11T21:36:29.737Z,18.90
2023-05-11T21:39:04.717Z,24.90
2023-05-11T21:41:38.270Z,19.92
2023-05-11T21:44:11.773Z,18.05
2023-05-11T21:46:47.109Z,17.27
2023-05-11T21:49:20.671Z,15.48
2023-05-11T21:51:54.137Z,13.82
2023-05-11T21:54:27.843Z,18.20
2023-05-11T21:57:01.353Z,12.77
2023-05-11T21:59:34.882Z,16.30
2023-05-11T22:02:10.025Z,17.45
2023-05-11T22:04:44.218Z,14.40
2023-05-11T22:07:17.735Z,17.38
2023-05-11T22:09:51.255Z,18.92
2023-05-11T22:12:24.699Z,14.25
2023-05-11T22:14:58.277Z,12.00
2023-05-11T22:17:33.217Z,10.25
2023-05-11T22:20:08.336Z,15.95
2023-05-11T22:22:42.069Z,18.25
2023-05-11T22:25:15.829Z,15.35
2023-05-11T22:27:49.345Z,14.23
2023-05-11T22:30:23.064Z,12.93
2023-05-11T22:32:58.151Z,17.95
2023-05-11T22:35:31.861Z,12.43
2023-05-11T22:38:05.401Z,11.20
2023-05-11T22:40:38.865Z,14.15
2023-05-11T22:43:12.308Z,15.15
2023-05-11T22:45:45.888Z,14.75
2023-05-11T22:48:20.825Z,18.10
2023-05-11T22:50:54.568Z,11.32
2023-05-11T22:53:29.773Z,16.92
2023-05-11T22:56:05.099Z,13.65
2023-05-11T22:58:38.580Z,14.63
2023-05-11T23:01:12.390Z,14.77
2023-05-11T23:03:47.309Z,10.05
2023-05-11T23:06:20.792Z,12.45
2023-05-11T23:08:54.396Z,13.00
2023-05-11T23:11:28.093Z,11.65
2023-05-11T23:14:02.036Z,14.25
2023-05-11T23:16:35.542Z,12.27
2023-05-11T23:19:10.429Z,11.73
2023-05-11T23:21:44.604Z,16.42
2023-05-11T23:24:18.061Z,15.45
2023-05-11T23:26:51.514Z,15.13
2023-05-11T23:29:25.061Z,13.60
2023-05-11T23:31:58.663Z,13.43
2023-05-11T23:34:33.789Z,13.60
2023-05-11T23:37:07.411Z,17.30
2023-05-11T23:39:41.123Z,18.65
2023-05-11T23:42:14.633Z,13.57
2023-05-11T23:44:48.106Z,14.52
2023-05-11T23:47:21.626Z,16.65
2023-05-11T23:49:56.875Z,16.45
2023-05-11T23:52:30.300Z,13.40
2023-05-11T23:55:04.949Z,13.50
2023-05-11T23:57:38.529Z,14.57
